Home > Products > Valid Products > MTR

000
SAUS43 KDDC 070758
MTRP28
METAR KP28 070756Z AUTO 17004KT M01/M06 A3009 RMK AO1 SLP196
T10061061





000
SAUS43 KDDC 070657
MTRP28
METAR KP28 070656Z AUTO 16006KT 01/M06 A3011 RMK AO1 SLP205
T00061061





000
SAUS43 KDDC 070657
MTRP28
METAR KP28 070656Z AUTO 16006KT 01/M06 A3011 RMK AO1 SLP205
T00061061





000
SAUS43 KDDC 070557
MTRP28
METAR KP28 070556Z AUTO 16004KT 01/M07 A3012 RMK AO1 SLP207
T00111067 10089 20011 401281056 56013





000
SAUS43 KDDC 070458
MTRP28
METAR KP28 070456Z AUTO 18007KT 02/M07 A3012 RMK AO1 SLP209
T00221067





000
SAUS43 KDDC 070458
MTRP28
METAR KP28 070456Z AUTO 18007KT 02/M07 A3012 RMK AO1 SLP209
T00221067





000
SAUS43 KDDC 070358
MTRP28
METAR KP28 070356Z AUTO 18008KT 02/M06 A3013 RMK AO1 SLP214
T00221061





000
SAUS43 KDDC 070358
MTRP28
METAR KP28 070356Z AUTO 18008KT 02/M06 A3013 RMK AO1 SLP214
T00221061





000
SAUS43 KDDC 070258
MTRP28
METAR KP28 070256Z AUTO 17009KT 04/M06 A3016 RMK AO1 SLP225
T00391061 56014





000
SAUS43 KDDC 070158
MTRP28
METAR KP28 070156Z AUTO 17008KT 05/M06 A3016 RMK AO1 SLP228
T00501061





000
SAUS43 KDDC 070158
MTRP28
METAR KP28 070156Z AUTO 17008KT 05/M06 A3016 RMK AO1 SLP228
T00501061





000
SAUS43 KDDC 070058
MTRP28
METAR KP28 070056Z AUTO 18007KT 07/M07 A3019 RMK AO1 SLP236
T00721072





000
SAUS43 KDDC 070058
MTRP28
METAR KP28 070056Z AUTO 18007KT 07/M07 A3019 RMK AO1 SLP236
T00721072





000
SAUS43 KDDC 062357
MTRP28
METAR KP28 062356Z AUTO 19006KT 09/M08 A3020 RMK AO1 SLP237
T00891083 10128 20067 56014





000
SAUS43 KDDC 062357
MTRP28
METAR KP28 062356Z AUTO 19006KT 09/M08 A3020 RMK AO1 SLP237
T00891083 10128 20067 56014





000
SAUS43 KDDC 062258
MTRP28
METAR KP28 062256Z AUTO 25006KT 12/M09 A3021 RMK AO1 SLP239
T01171094





000
SAUS43 KDDC 062258
MTRP28
METAR KP28 062256Z AUTO 25006KT 12/M09 A3021 RMK AO1 SLP239
T01171094





000
SAUS43 KDDC 062157
MTRP28
METAR KP28 062156Z AUTO 25008KT 12/M10 A3022 RMK AO1 SLP241
T01221100





000
SAUS43 KDDC 062058
MTRP28
METAR KP28 062056Z AUTO 25009KT 12/M07 A3024 RMK AO1 SLP249
T01171072 56035





000
SAUS43 KDDC 061958
MTRP28
METAR KP28 061956Z AUTO 11/M06 A3027 RMK AO1 SLP259 T01061061





000
SAUS43 KDDC 061858
MTRP28
METAR KP28 061856Z AUTO 24005KT 09/M05 A3031 RMK AO1 SLP273
T00891050





000
SAUS43 KDDC 061858
MTRP28
METAR KP28 061856Z AUTO 24005KT 09/M05 A3031 RMK AO1 SLP273
T00891050





000
SAUS43 KDDC 061757
MTRP28
METAR KP28 061756Z AUTO 25006KT 07/M04 A3035 RMK AO1 SLP287
T00671039 10072 21056 50001





000
SAUS43 KDDC 061757
MTRP28
METAR KP28 061756Z AUTO 25006KT 07/M04 A3035 RMK AO1 SLP287
T00671039 10072 21056 50001





000
SAUS43 KDDC 061658
MTRP28
METAR KP28 061656Z AUTO 28003KT 04/M03 A3037 RMK AO1 SLP295
T00391033





000
SAUS43 KDDC 061658
MTRP28
METAR KP28 061656Z AUTO 28003KT 04/M03 A3037 RMK AO1 SLP295
T00391033





000
SAUS43 KDDC 061557
MTRP28
METAR KP28 061556Z AUTO 28005KT 01/M03 A3037 RMK AO1 SLP298
T00061033





000
SAUS43 KDDC 061457
MTRP28
METAR KP28 061456Z AUTO 33006KT M03/M06 A3034 RMK AO1 SLP293
T10281056 51005





000
SAUS43 KDDC 061357
MTRP28
METAR KP28 061356Z AUTO 30005KT M06/M07 A3034 RMK AO1 SLP292
T10561067





000
SAUS43 KDDC 061258
MTRP28
METAR KP28 061256Z AUTO 30004KT M06/M07 A3033 RMK AO1 SLP286
T10561067





000
SAUS43 KDDC 061158
MTRP28
METAR KP28 061156Z AUTO 32005KT M05/M06 A3033 RMK AO1 SLP283
T10501061 10000 21050 51005





000
SAUS43 KDDC 061158
MTRP28
METAR KP28 061156Z AUTO 32005KT M05/M06 A3033 RMK AO1 SLP283
T10501061 10000 21050 51005





000
SAUS43 KDDC 061058
MTRP28
METAR KP28 061056Z AUTO 31005KT M04/M05 A3032 RMK AO1 SLP278
T10391050





000
SAUS43 KDDC 061058
MTRP28
METAR KP28 061056Z AUTO 31005KT M04/M05 A3032 RMK AO1 SLP278
T10391050





000
SAUS43 KDDC 060957
MTRP28
METAR KP28 060956Z AUTO 00000KT M04/M05 A3032 RMK AO1 SLP277
T10391050





000
SAUS43 KDDC 060858
MTRP28
METAR KP28 060856Z AUTO 34003KT M03/M05 A3031 RMK AO1 SLP274
T10281050 53008





000
SAUS43 KDDC 060758
MTRP28
METAR KP28 060756Z AUTO 35005KT M02/M04 A3030 RMK AO1 SLP268
T10171044





000
SAUS43 KDDC 060657
MTRP28
METAR KP28 060656Z AUTO 33005KT M01/M04 A3030 RMK AO1 SLP269
T10111039





000
SAUS43 KDDC 060657
MTRP28
METAR KP28 060656Z AUTO 33005KT M01/M04 A3030 RMK AO1 SLP269
T10111039





000
SAUS43 KDDC 060557
MTRP28
METAR KP28 060556Z AUTO 32003KT M01/M04 A3029 RMK AO1 SLP266
T10061039 10067 21022 401111044 55000





000
SAUS43 KDDC 060557
MTRP28
METAR KP28 060556Z AUTO 32003KT M01/M04 A3029 RMK AO1 SLP266
T10061039 10067 21022 401111044 55000





000
SAUS43 KDDC 060458
MTRP28
METAR KP28 060456Z AUTO 34003KT M01/M06 A3028 RMK AO1 SLP265
T10111056





000
SAUS43 KDDC 060458
MTRP28
METAR KP28 060456Z AUTO 34003KT M01/M06 A3028 RMK AO1 SLP265
T10111056





000
SAUS43 KDDC 060358
MTRP28
METAR KP28 060356Z AUTO 34003KT M01/M07 A3029 RMK AO1 SLP268
T10061067





000
SAUS43 KDDC 060257
MTRP28
METAR KP28 060256Z AUTO 35004KT M01/M06 A3029 RMK AO1 SLP271
T10111056 51010





000
SAUS43 KDDC 060257
MTRP28
METAR KP28 060256Z AUTO 35004KT M01/M06 A3029 RMK AO1 SLP271
T10111056 51010





000
SAUS43 KDDC 060158
MTRP28
METAR KP28 060156Z AUTO 32006KT 02/M05 A3028 RMK AO1 SLP270
T00171050





000
SAUS43 KDDC 060158
MTRP28
METAR KP28 060156Z AUTO 32006KT 02/M05 A3028 RMK AO1 SLP270
T00171050





000
SAUS43 KDDC 060058
MTRP28
METAR KP28 060056Z AUTO 34003KT 04/M04 A3028 RMK AO1 SLP266
T00391044





000
SAUS43 KDDC 060058
MTRP28
METAR KP28 060056Z AUTO 34003KT 04/M04 A3028 RMK AO1 SLP266
T00391044





000
SAUS43 KDDC 052357
MTRP28
METAR KP28 052356Z AUTO 01007KT 07/M04 A3026 RMK AO1 SLP257
T00671044 10111 20067 53007





000
SAUS43 KDDC 052357
MTRP28
METAR KP28 052356Z AUTO 01007KT 07/M04 A3026 RMK AO1 SLP257
T00671044 10111 20067 53007





000
SAUS43 KDDC 052258
MTRP28
METAR KP28 052256Z AUTO 34005KT 10/M04 A3024 RMK AO1 SLP249
T01001044





000
SAUS43 KDDC 052258
MTRP28
METAR KP28 052256Z AUTO 34005KT 10/M04 A3024 RMK AO1 SLP249
T01001044





000
SAUS43 KDDC 052157
MTRP28
METAR KP28 052156Z AUTO VRB04KT 10/M03 A3023 RMK AO1 SLP246
T01001033





000
SAUS43 KDDC 052058
MTRP28
METAR KP28 052056Z AUTO 09007KT 10/M03 A3024 RMK AO1 SLP248
T01001033 56020





000
SAUS43 KDDC 052058
MTRP28
METAR KP28 052056Z AUTO 09007KT 10/M03 A3024 RMK AO1 SLP248
T01001033 56020





000
SAUS43 KDDC 051958
MTRP28
METAR KP28 051956Z AUTO 09008KT 09/M04 A3025 RMK AO1 SLP255
T00891044





000
SAUS43 KDDC 051858
MTRP28
METAR KP28 051856Z AUTO 11005KT 07/M05 A3027 RMK AO1 SLP263
T00721050





000
SAUS43 KDDC 051758
MTRP28
METAR KP28 051756Z AUTO 11006KT 07/M06 A3030 RMK AO1 SLP271
T00721056 10072 21039 58012





000
SAUS43 KDDC 051758
MTRP28
METAR KP28 051756Z AUTO 11006KT 07/M06 A3030 RMK AO1 SLP271
T00721056 10072 21039 58012





000
SAUS43 KDDC 051657
MTRP28
METAR KP28 051656Z AUTO 12008KT 06/M06 A3031 RMK AO1 SLP277
T00561056





000
SAUS43 KDDC 051657
MTRP28
METAR KP28 051656Z AUTO 12008KT 06/M06 A3031 RMK AO1 SLP277
T00561056





000
SAUS43 KDDC 051557
MTRP28
METAR KP28 051556Z AUTO 07008KT 03/M06 A3032 RMK AO1 SLP282
T00331061





000
SAUS43 KDDC 051458
MTRP28
METAR KP28 051456Z AUTO 04006KT M01/M06 A3033 RMK AO1 SLP287
T10061056 53002





000
SAUS43 KDDC 051357
MTRP28
METAR KP28 051356Z AUTO 08007KT M03/M06 A3032 RMK AO1 SLP285
T10281061





000
SAUS43 KDDC 051357
MTRP28
METAR KP28 051356Z AUTO 08007KT M03/M06 A3032 RMK AO1 SLP285
T10281061





000
SAUS43 KDDC 051258
MTRP28
METAR KP28 051256Z AUTO 00000KT M03/M06 A3033 RMK AO1 SLP284
T10331061





000
SAUS43 KDDC 051258
MTRP28
METAR KP28 051256Z AUTO 00000KT M03/M06 A3033 RMK AO1 SLP284
T10331061





000
SAUS43 KDDC 051158
MTRP28
METAR KP28 051156Z AUTO 00000KT M03/M06 A3033 RMK AO1 SLP283
T10331061 11022 21044 53008





000
SAUS43 KDDC 051158
MTRP28
METAR KP28 051156Z AUTO 00000KT M03/M06 A3033 RMK AO1 SLP283
T10331061 11022 21044 53008





000
SAUS43 KDDC 051057
MTRP28
METAR KP28 051056Z AUTO 00000KT M04/M06 A3032 RMK AO1 SLP277
T10391061





000
SAUS43 KDDC 051057
MTRP28
METAR KP28 051056Z AUTO 00000KT M04/M06 A3032 RMK AO1 SLP277
T10391061





000
SAUS43 KDDC 051003 COR
MTRP28
METAR KP28 050956Z AUTO 00000KT M03/M07 A3030 RMK AO1 SLP272
T10331067





000
SAUS43 KDDC 050858
MTRP28
METAR KP28 050856Z AUTO 00000KT M03/M06 A3030 RMK AO1 SLP271
T10331061 56008





000
SAUS43 KDDC 050757
MTRP28
METAR KP28 050756Z AUTO 00000KT M03/M07 A3031 RMK AO1 SLP275
T10331072





000
SAUS43 KDDC 050658
MTRP28
METAR KP28 050656Z AUTO 36003KT M04/M08 A3031 RMK AO1 SLP275
T10391078





000
SAUS43 KDDC 050658
MTRP28
METAR KP28 050656Z AUTO 36003KT M04/M08 A3031 RMK AO1 SLP275
T10391078





000
SAUS43 KDDC 050558
MTRP28
METAR KP28 050556Z AUTO 00000KT M03/M08 A3033 RMK AO1 SLP282
T10331078 10050 21033 400941094 51003





000
SAUS43 KDDC 050558
MTRP28
METAR KP28 050556Z AUTO 00000KT M03/M08 A3033 RMK AO1 SLP282
T10331078 10050 21033 400941094 51003





000
SAUS43 KDDC 050457
MTRP28
METAR KP28 050456Z AUTO 00000KT M02/M09 A3032 RMK AO1 SLP282
T10221089





000
SAUS43 KDDC 050358
MTRP28
METAR KP28 050356Z AUTO 31004KT M02/M09 A3033 RMK AO1 SLP286
T10221089





000
SAUS43 KDDC 050258
MTRP28
METAR KP28 050256Z AUTO 32003KT M01/M09 A3032 RMK AO1 SLP284
T10061094 53010





000
SAUS43 KDDC 050157
MTRP28
METAR KP28 050156Z AUTO 02003KT 01/M10 A3030 RMK AO1 SLP280
T00061100





000
SAUS43 KDDC 050157
MTRP28
METAR KP28 050156Z AUTO 02003KT 01/M10 A3030 RMK AO1 SLP280
T00061100





000
SAUS43 KDDC 050058
MTRP28
METAR KP28 050056Z AUTO 01005KT 02/M12 A3029 RMK AO1 SLP277
T00171117





000
SAUS43 KDDC 050058
MTRP28
METAR KP28 050056Z AUTO 01005KT 02/M12 A3029 RMK AO1 SLP277
T00171117





000
SAUS43 KDDC 042358
MTRP28
METAR KP28 042356Z AUTO 35006KT 05/M12 A3028 RMK AO1 SLP272
T00501122 10094 20050 53005





000
SAUS43 KDDC 042358
MTRP28
METAR KP28 042356Z AUTO 35006KT 05/M12 A3028 RMK AO1 SLP272
T00501122 10094 20050 53005





000
SAUS43 KDDC 042257
MTRP28
METAR KP28 042256Z AUTO 29006KT 09/M15 A3027 RMK AO1 SLP263
T00891150





000
SAUS43 KDDC 042158
MTRP28
METAR KP28 042156Z AUTO 27004KT 09/M13 A3027 RMK AO1 SLP263
T00941133





000
SAUS43 KDDC 042058
MTRP28
METAR KP28 042056Z AUTO 30012KT 09/M14 A3027 RMK AO1 SLP263
T00941139 56024





000
SAUS43 KDDC 042058
MTRP28
METAR KP28 042056Z AUTO 30012KT 09/M14 A3027 RMK AO1 SLP263
T00941139 56024





000
SAUS43 KDDC 041958
MTRP28
METAR KP28 041956Z AUTO 27017G20KT 08/M09 A3029 RMK AO1 SLP270
T00831094





000
SAUS43 KDDC 041858
MTRP28
METAR KP28 041856Z AUTO 24013G20KT 08/M12 A3031 RMK AO1 SLP278
T00781117





000
SAUS43 KDDC 041858
MTRP28
METAR KP28 041856Z AUTO 24013G20KT 08/M12 A3031 RMK AO1 SLP278
T00781117





000
SAUS43 KDDC 041757
MTRP28
METAR KP28 041756Z AUTO 26010G18KT 06/M10 A3034 RMK AO1 SLP289
T00611100 10061 21094 58005





000
SAUS43 KDDC 041757
MTRP28
METAR KP28 041756Z AUTO 26010G18KT 06/M10 A3034 RMK AO1 SLP289
T00611100 10061 21094 58005





000
SAUS43 KDDC 041657
MTRP28
METAR KP28 041656Z AUTO 23005KT 02/M06 A3037 RMK AO1 SLP300
T00221056





000
SAUS43 KDDC 041558
MTRP28
METAR KP28 041556Z AUTO 29006KT M02/M07 A3036 RMK AO1 SLP299
T10221072





000
SAUS43 KDDC 041458
MTRP28
METAR KP28 041456Z AUTO 34003KT M06/M08 A3036 RMK AO1 SLP301
T10561083 53008





000
SAUS43 KDDC 041358
MTRP28
METAR KP28 041356Z AUTO 34003KT M09/M11 A3035 RMK AO1 SLP299
T10891111





000
SAUS43 KDDC 041257
MTRP28
METAR KP28 041256Z AUTO 34003KT M09/M11 A3034 RMK AO1 SLP295
T10891106





000
SAUS43 KDDC 041257
MTRP28
METAR KP28 041256Z AUTO 34003KT M09/M11 A3034 RMK AO1 SLP295
T10891106





000
SAUS43 KDDC 041158
MTRP28
METAR KP28 041156Z AUTO 35004KT M08/M11 A3033 RMK AO1 SLP291
T10831106 11061 21089 53001





000
SAUS43 KDDC 041158
MTRP28
METAR KP28 041156Z AUTO 35004KT M08/M11 A3033 RMK AO1 SLP291
T10831106 11061 21089 53001





000
SAUS43 KDDC 041058
MTRP28
METAR KP28 041056Z AUTO 36005KT M08/M10 A3032 RMK AO1 SLP284
T10831100





000
SAUS43 KDDC 041058
MTRP28
METAR KP28 041056Z AUTO 36005KT M08/M10 A3032 RMK AO1 SLP284
T10831100





000
SAUS43 KDDC 040957
MTRP28
METAR KP28 040956Z AUTO 34004KT M08/M09 A3032 RMK AO1 SLP285
T10831094





000
SAUS43 KDDC 040858
MTRP28
METAR KP28 040856Z AUTO 34004KT M07/M09 A3033 RMK AO1 SLP287
T10721089 53001





    US Dept of Commerce
    National Oceanic and Atmospheric Administration
    National Weather Service
    1325 East West Highway
    Silver Spring, MD 20910
    Page Author: NWS Internet Services Team
Disclaimer
Information Quality
Credits
Glossary
Privacy Policy
Freedom of Information Act (FOIA)
About Us
Career Opportunities